Time;durP1;ratioP1;P1;durP2;ratioP2;P2;SDS_P1;SDS_P2;PMS_P1;PMS_P2;Temp;Humidity;BMP_temperature;BMP_pressure;BME280_temperature;BME280_humidity;BME280_pressure;Samples;Min_cycle;Max_cycle;Signal;HPM_P1;HPM_P2
2021/03/04 12:15:05;;;;;;;5.73;4.50;;;24.60;74.10;;;;;;5223724;27;20553;-75
2021/03/04 12:17:32;;;;;;;5.50;4.07;;;23.20;73.90;;;;;;5199038;27;20424;-73
2021/03/04 12:20:00;;;;;;;6.03;4.63;;;22.50;76.00;;;;;;5180368;27;20444;-79
2021/03/04 12:22:28;;;;;;;5.33;4.00;;;22.10;76.80;;;;;;5197154;27;20421;-73
2021/03/04 12:24:56;;;;;;;7.37;4.40;;;21.90;77.00;;;;;;5198384;27;20412;-80
2021/03/04 12:27:26;;;;;;;5.13;4.47;;;21.80;78.50;;;;;;5163472;27;20539;-70
2021/03/04 12:29:54;;;;;;;5.70;4.17;;;21.70;78.70;;;;;;5169063;27;20852;-80
2021/03/04 12:32:22;;;;;;;4.30;3.90;;;21.70;79.30;;;;;;5169165;27;20444;-78
2021/03/04 12:35:17;;;;;;;8.60;4.60;;;21.60;79.40;;;;;;5202358;27;21096;-75
2021/03/04 12:38:13;;;;;;;3.87;3.57;;;21.60;79.30;;;;;;5195408;27;20604;-73
2021/03/04 12:40:42;;;;;;;5.50;4.10;;;21.60;78.50;;;;;;5183613;27;20456;-80
2021/03/04 12:43:10;;;;;;;5.37;4.50;;;21.60;79.80;;;;;;5173231;22;20500;-74
2021/03/04 12:45:38;;;;;;;5.10;4.60;;;21.60;79.00;;;;;;5093106;28;20451;-75
2021/03/04 12:48:08;;;;;;;5.30;4.40;;;21.60;78.90;;;;;;5094002;28;20425;-74
2021/03/04 12:50:35;;;;;;;5.17;4.10;;;21.60;78.50;;;;;;5089638;28;20531;-75
2021/03/04 12:53:02;;;;;;;5.70;3.77;;;21.60;80.30;;;;;;5090083;28;20952;-74
2021/03/04 12:55:29;;;;;;;5.00;4.20;;;21.60;79.60;;;;;;5089039;28;20470;-74
2021/03/04 12:57:56;;;;;;;9.20;4.90;;;21.60;79.80;;;;;;5089333;28;20428;-74
2021/03/04 13:00:48;;;;;;;4.63;3.73;;;21.70;79.40;;;;;;5089392;28;20428;-75
2021/03/04 13:03:33;;;;;;;4.80;4.33;;;21.60;79.60;;;;;;5089594;28;20785;-74
2021/03/04 13:06:01;;;;;;;4.30;3.27;;;21.60;80.30;;;;;;5089494;28;20939;-74
2021/03/04 13:08:31;;;;;;;4.30;3.77;;;21.70;81.90;;;;;;5089163;28;20429;-75
2021/03/04 13:10:59;;;;;;;5.30;4.10;;;21.70;80.30;;;;;;5088069;28;20429;-75
2021/03/04 13:13:26;;;;;;;4.60;3.90;;;21.70;81.30;;;;;;5087795;28;20972;-74
2021/03/04 13:15:53;;;;;;;7.03;4.70;;;21.70;80.30;;;;;;5088912;28;20516;-74
2021/03/04 13:18:20;;;;;;;3.80;3.50;;;21.70;81.00;;;;;;5089012;28;20512;-74
2021/03/04 13:20:49;;;;;;;5.63;3.70;;;21.70;81.00;;;;;;5088326;28;20433;-74
2021/03/04 13:23:41;;;;;;;5.17;4.50;;;21.60;80.60;;;;;;5087514;28;20441;-74
2021/03/04 13:26:08;;;;;;;5.03;4.43;;;21.60;80.90;;;;;;5075387;28;20520;-74
2021/03/04 13:28:36;;;;;;;6.70;3.97;;;21.60;79.30;;;;;;5075549;28;20508;-75
2021/03/04 13:31:03;;;;;;;7.47;4.20;;;21.60;81.10;;;;;;5076498;28;20936;-77
2021/03/04 13:33:32;;;;;;;6.33;3.77;;;21.60;79.80;;;;;;5075379;28;20454;-74
2021/03/04 13:36:01;;;;;;;3.97;3.57;;;21.60;81.00;;;;;;5076011;28;20476;-75
2021/03/04 13:38:28;;;;;;;6.90;4.70;;;21.60;80.30;;;;;;5074189;28;20450;-72
2021/03/04 13:40:56;;;;;;;6.30;4.97;;;21.60;78.80;;;;;;5074064;28;20214;-71
2021/03/04 13:43:23;;;;;;;6.37;4.30;;;21.60;78.70;;;;;;5074451;28;20542;-71
2021/03/04 13:45:51;;;;;;;5.87;4.40;;;21.60;78.90;;;;;;5074495;28;20441;-70
2021/03/04 13:48:19;;;;;;;6.67;4.30;;;21.60;80.20;;;;;;5074974;28;20441;-72
2021/03/04 13:50:51;;;;;;;7.60;4.07;;;21.60;78.00;;;;;;5074312;28;20567;-71
2021/03/04 13:53:19;;;;;;;7.13;5.20;;;21.60;78.80;;;;;;5077157;28;20879;-72
2021/03/04 13:55:46;;;;;;;13.13;6.50;;;21.60;76.80;;;;;;5074323;28;20517;-72
2021/03/04 13:58:14;;;;;;;9.53;5.73;;;21.50;76.10;;;;;;5074668;28;21010;-72
2021/03/04 14:00:41;;;;;;;6.10;4.87;;;21.40;76.10;;;;;;5075856;28;20477;-72
2021/03/04 14:03:14;;;;;;;6.57;4.77;;;21.40;77.50;;;;;;5075637;28;20441;-72
2021/03/04 14:05:41;;;;;;;4.73;4.10;;;21.40;77.50;;;;;;5075727;28;20434;-72
2021/03/04 14:08:08;;;;;;;7.07;4.00;;;21.40;79.80;;;;;;5075609;28;20495;-72
2021/03/04 14:10:37;;;;;;;6.90;4.50;;;21.40;81.00;;;;;;5075740;28;21020;-72
2021/03/04 14:13:04;;;;;;;6.27;4.80;;;21.40;79.20;;;;;;5077254;28;20469;-72
2021/03/04 14:15:35;;;;;;;6.63;4.13;;;21.40;82.00;;;;;;5083092;28;20430;-73
2021/03/04 14:18:02;;;;;;;4.87;3.53;;;21.40;79.30;;;;;;5085060;28;20437;-72
2021/03/04 14:20:31;;;;;;;4.67;4.23;;;21.40;80.00;;;;;;5082926;28;20457;-72
2021/03/04 14:22:59;;;;;;;5.70;4.40;;;21.40;79.40;;;;;;5083681;28;20489;-73
2021/03/04 14:25:26;;;;;;;4.30;3.90;;;21.40;78.40;;;;;;5084434;28;20785;-73
2021/03/04 14:28:11;;;;;;;4.67;4.17;;;21.40;79.60;;;;;;5081564;28;20436;-73
2021/03/04 14:30:39;;;;;;;4.67;3.90;;;21.40;78.30;;;;;;5078062;28;20724;-72
2021/03/04 14:33:08;;;;;;;5.33;3.70;;;21.30;78.30;;;;;;5079925;28;20453;-73
2021/03/04 14:35:53;;;;;;;4.27;3.83;;;21.40;78.30;;;;;;5076640;28;20452;-73
2021/03/04 14:38:20;;;;;;;4.20;3.30;;;21.30;78.60;;;;;;5073581;28;20533;-73
2021/03/04 14:40:48;;;;;;;4.50;4.10;;;21.30;78.00;;;;;;5073563;28;20783;-73
2021/03/04 14:43:18;;;;;;;5.10;4.10;;;21.30;78.20;;;;;;5072017;28;20495;-73
2021/03/04 14:45:46;;;;;;;4.83;4.17;;;21.30;77.90;;;;;;5073213;28;20801;-73
2021/03/04 14:48:14;;;;;;;5.53;3.90;;;21.30;77.60;;;;;;5072754;28;20425;-73
2021/03/04 14:50:47;;;;;;;4.90;3.70;;;21.30;78.00;;;;;;5073525;28;20434;-72
2021/03/04 14:53:15;;;;;;;6.33;4.47;;;21.30;79.10;;;;;;5072848;28;20971;-73
2021/03/04 14:55:44;;;;;;;4.73;4.20;;;21.30;77.10;;;;;;5071426;28;20422;-73
2021/03/04 14:58:32;;;;;;;6.60;4.73;;;21.30;77.10;;;;;;5073469;28;20453;-73
2021/03/04 15:00:59;;;;;;;5.00;4.53;;;21.30;77.70;;;;;;5072614;28;20929;-73
2021/03/04 15:03:27;;;;;;;5.93;4.70;;;21.20;76.10;;;;;;5073431;28;20429;-72
2021/03/04 15:05:55;;;;;;;5.30;4.20;;;21.30;76.50;;;;;;5072688;28;20517;-73
2021/03/04 15:08:23;;;;;;;5.63;3.90;;;21.20;76.20;;;;;;5072367;28;20512;-73
2021/03/04 15:10:51;;;;;;;4.30;3.90;;;21.20;76.50;;;;;;5072418;28;20445;-73
2021/03/04 15:13:18;;;;;;;5.37;3.60;;;21.20;76.10;;;;;;5072495;28;20517;-73
2021/03/04 15:15:47;;;;;;;5.40;4.50;;;21.20;76.90;;;;;;5071965;28;20482;-72
2021/03/04 15:18:18;;;;;;;4.60;3.83;;;21.20;77.20;;;;;;5071924;28;20430;-72
2021/03/04 15:20:45;;;;;;;5.43;4.00;;;21.30;78.80;;;;;;5073371;28;20587;-72
2021/03/04 15:23:14;;;;;;;5.03;3.80;;;21.30;77.50;;;;;;5071049;28;20468;-72
2021/03/04 15:25:41;;;;;;;4.30;3.67;;;21.30;77.50;;;;;;5072401;28;20434;-72
2021/03/04 15:28:09;;;;;;;4.80;3.63;;;21.30;78.30;;;;;;5072119;28;20487;-72
2021/03/04 15:30:38;;;;;;;3.60;3.30;;;21.30;77.00;;;;;;5070669;28;20437;-72
2021/03/04 15:33:07;;;;;;;4.30;3.90;;;21.30;76.80;;;;;;5070487;28;20468;-72
2021/03/04 15:35:37;;;;;;;4.60;3.43;;;21.30;78.90;;;;;;5072558;28;20440;-72
2021/03/04 15:38:06;;;;;;;5.87;4.23;;;21.20;76.50;;;;;;5071788;28;20524;-72
2021/03/04 15:40:34;;;;;;;7.50;4.13;;;21.30;76.60;;;;;;5070346;28;20429;-72
2021/03/04 15:43:02;;;;;;;8.77;4.03;;;21.30;78.70;;;;;;5071796;28;20477;-72
2021/03/04 15:45:38;;;;;;;9.33;4.00;;;21.30;79.60;;;;;;5070114;28;20457;-72
2021/03/04 15:48:09;;;;;;;3.77;3.33;;;21.30;79.30;;;;;;5070326;28;20539;-71
2021/03/04 15:50:41;;;;;;;5.00;4.30;;;21.30;80.70;;;;;;5070455;28;20508;-71
2021/03/04 15:53:09;;;;;;;4.30;3.83;;;21.20;78.60;;;;;;5070534;28;20469;-71
2021/03/04 15:55:37;;;;;;;6.20;4.30;;;21.20;76.20;;;;;;5071980;28;20434;-73
2021/03/04 15:58:05;;;;;;;5.47;3.43;;;21.20;76.10;;;;;;5070874;28;20544;-72
2021/03/04 16:00:35;;;;;;;6.03;3.73;;;21.20;76.20;;;;;;5071159;28;20483;-73
2021/03/04 16:03:03;;;;;;;5.13;3.23;;;21.20;76.00;;;;;;5070723;28;20437;-72
2021/03/04 16:05:32;;;;;;;5.20;3.20;;;21.20;76.50;;;;;;5072315;28;20736;-73
2021/03/04 16:08:05;;;;;;;6.53;4.00;;;21.20;75.40;;;;;;5070535;28;20483;-72
2021/03/04 16:10:39;;;;;;;4.60;4.00;;;21.20;75.90;;;;;;5071382;28;20509;-72
2021/03/04 16:13:07;;;;;;;4.60;3.43;;;21.20;75.20;;;;;;5070196;28;20448;-72
2021/03/04 16:15:35;;;;;;;4.20;3.80;;;21.20;75.00;;;;;;5070809;28;20754;-74
2021/03/04 16:18:04;;;;;;;5.00;3.33;;;21.20;75.20;;;;;;5069747;28;20537;-73
2021/03/04 16:20:32;;;;;;;5.60;3.80;;;21.20;75.30;;;;;;5072838;28;20491;-72
2021/03/04 16:23:00;;;;;;;5.70;3.33;;;21.20;75.60;;;;;;5073877;28;20917;-72
2021/03/04 16:25:36;;;;;;;4.00;3.03;;;21.20;74.90;;;;;;5071041;28;20437;-72
2021/03/04 16:28:25;;;;;;;4.03;3.00;;;21.20;77.00;;;;;;5069845;28;20870;-72
2021/03/04 16:30:54;;;;;;;3.77;3.37;;;21.10;74.20;;;;;;5069716;28;20429;-72
2021/03/04 16:33:23;;;;;;;5.90;4.07;;;21.20;75.30;;;;;;5070546;28;20453;-72
2021/03/04 16:35:52;;;;;;;10.33;4.50;;;21.20;76.40;;;;;;5071390;28;20422;-72
2021/03/04 16:38:22;;;;;;;4.90;3.43;;;21.20;75.90;;;;;;5072481;28;20430;-72
2021/03/04 16:40:53;;;;;;;7.03;3.80;;;21.20;76.80;;;;;;5072030;28;20465;-72
2021/03/04 16:43:21;;;;;;;3.97;3.00;;;21.20;74.30;;;;;;5069850;28;20489;-72
2021/03/04 16:45:52;;;;;;;5.80;3.50;;;21.20;75.60;;;;;;5070783;28;20430;-72
2021/03/04 16:48:20;;;;;;;5.90;4.03;;;21.10;74.10;;;;;;5071459;28;20516;-73
2021/03/04 16:50:49;;;;;;;6.40;3.80;;;21.10;74.50;;;;;;5070029;28;20463;-72
2021/03/04 16:53:19;;;;;;;5.67;3.83;;;21.10;74.50;;;;;;5069574;28;20472;-72
2021/03/04 16:55:46;;;;;;;4.10;3.60;;;21.20;74.30;;;;;;5069710;28;20532;-72
2021/03/04 16:58:15;;;;;;;6.30;3.30;;;21.20;73.80;;;;;;5070139;28;20833;-72
2021/03/04 17:00:44;;;;;;;5.93;4.23;;;21.10;75.00;;;;;;5072500;28;20480;-73
2021/03/04 17:03:32;;;;;;;6.17;3.63;;;21.10;75.00;;;;;;5075944;28;20513;-73
2021/03/04 17:06:00;;;;;;;7.10;3.30;;;21.10;73.70;;;;;;5074708;28;20469;-73
2021/03/04 17:08:28;;;;;;;4.23;3.60;;;21.10;74.50;;;;;;5074710;28;20966;-72
2021/03/04 17:10:56;;;;;;;4.60;3.70;;;21.10;75.70;;;;;;5073295;28;20441;-72
2021/03/04 17:13:24;;;;;;;4.73;3.53;;;21.10;76.10;;;;;;5074383;28;20457;-72
2021/03/04 17:15:52;;;;;;;6.90;4.10;;;21.10;75.40;;;;;;5076557;28;20437;-72
2021/03/04 17:18:20;;;;;;;9.10;3.90;;;21.10;76.30;;;;;;5075403;28;20438;-73
2021/03/04 17:20:49;;;;;;;7.20;3.80;;;21.10;76.40;;;;;;5074999;28;20430;-72
2021/03/04 17:23:42;;;;;;;10.00;4.50;;;21.10;74.30;;;;;;5074803;28;20450;-72
2021/03/04 17:26:09;;;;;;;3.87;3.47;;;21.10;75.80;;;;;;5074562;28;20476;-72
2021/03/04 17:28:36;;;;;;;8.10;3.70;;;21.10;74.50;;;;;;5075331;28;20541;-72
2021/03/04 17:31:04;;;;;;;5.27;3.80;;;21.10;73.60;;;;;;5075800;28;20453;-72
2021/03/04 17:33:33;;;;;;;8.10;4.20;;;21.10;74.10;;;;;;5075252;28;20465;-72
2021/03/04 17:36:01;;;;;;;8.70;4.33;;;21.10;73.70;;;;;;5076019;28;20498;-72
2021/03/04 17:38:29;;;;;;;5.30;3.80;;;21.10;74.30;;;;;;5076199;28;20897;-72
2021/03/04 17:40:57;;;;;;;4.63;3.50;;;21.10;73.60;;;;;;5075547;28;20435;-72
2021/03/04 17:43:29;;;;;;;6.53;4.00;;;21.10;73.70;;;;;;5074256;28;20495;-72
2021/03/04 17:45:56;;;;;;;5.20;4.20;;;21.10;73.50;;;;;;5074724;28;20521;-72
2021/03/04 17:48:24;;;;;;;5.13;4.07;;;21.10;73.50;;;;;;5074677;28;20430;-73
2021/03/04 17:50:52;;;;;;;8.10;3.57;;;21.10;74.30;;;;;;5074441;28;20432;-72
2021/03/04 17:53:20;;;;;;;10.07;4.03;;;21.10;74.70;;;;;;5072834;28;20451;-73
2021/03/04 17:55:47;;;;;;;5.00;3.37;;;21.10;76.40;;;;;;5074491;28;20429;-72
2021/03/04 17:58:15;;;;;;;6.33;4.17;;;21.10;75.70;;;;;;5072529;28;20444;-72
2021/03/04 18:00:56;;;;;;;8.40;4.10;;;21.10;74.60;;;;;;5073772;28;20442;-72
2021/03/04 18:03:25;;;;;;;11.83;4.03;;;21.10;75.00;;;;;;5074566;28;20465;-72
2021/03/04 18:05:53;;;;;;;13.77;4.37;;;21.10;76.40;;;;;;5074497;28;20928;-73
2021/03/04 18:08:21;;;;;;;11.00;3.70;;;21.10;76.00;;;;;;5074642;28;20445;-72
2021/03/04 18:10:48;;;;;;;10.00;4.50;;;21.10;75.80;;;;;;5073876;28;20453;-74
2021/03/04 18:13:17;;;;;;;5.50;3.73;;;21.10;77.00;;;;;;5073986;28;20444;-72
2021/03/04 18:15:45;;;;;;;12.73;4.10;;;21.10;74.20;;;;;;5074209;28;20497;-72
2021/03/04 18:18:12;;;;;;;8.00;3.50;;;21.10;75.90;;;;;;5073822;28;20467;-72
2021/03/04 18:20:42;;;;;;;6.07;4.57;;;21.10;74.40;;;;;;5073624;28;20430;-72
2021/03/04 18:23:09;;;;;;;5.83;4.03;;;21.10;75.60;;;;;;5073004;28;20437;-72
2021/03/04 18:25:37;;;;;;;5.83;3.47;;;21.10;76.40;;;;;;5073385;28;20437;-72
2021/03/04 18:28:05;;;;;;;8.33;4.20;;;21.10;75.70;;;;;;5073340;28;20547;-72
2021/03/04 18:30:33;;;;;;;7.33;4.57;;;21.10;77.10;;;;;;5071994;28;20925;-72
2021/03/04 18:33:01;;;;;;;7.60;4.30;;;21.10;75.50;;;;;;5073076;28;20440;-72
2021/03/04 18:35:32;;;;;;;7.23;3.63;;;21.10;76.00;;;;;;5073006;28;20843;-72
2021/03/04 18:38:02;;;;;;;5.10;3.20;;;21.10;75.80;;;;;;5072994;28;20774;-72
2021/03/04 18:40:55;;;;;;;9.70;3.57;;;21.10;75.90;;;;;;5072644;28;20466;-72
2021/03/04 18:43:22;;;;;;;9.27;3.40;;;21.10;75.20;;;;;;5072421;28;20556;-72
2021/03/04 18:45:52;;;;;;;8.20;3.97;;;21.10;74.20;;;;;;5073944;28;20898;-72
2021/03/04 18:48:20;;;;;;;8.03;4.23;;;21.00;74.00;;;;;;5072787;28;20858;-72
2021/03/04 18:50:47;;;;;;;5.40;3.73;;;21.00;74.00;;;;;;5073539;28;20425;-73
2021/03/04 18:53:15;;;;;;;6.50;3.33;;;21.00;75.50;;;;;;5072791;28;20433;-73
2021/03/04 18:55:48;;;;;;;10.60;4.80;;;21.00;77.00;;;;;;5070912;28;20453;-72
2021/03/04 18:58:15;;;;;;;8.27;4.57;;;21.00;74.80;;;;;;5072426;28;20433;-73
2021/03/04 19:00:42;;;;;;;6.40;4.00;;;21.00;74.70;;;;;;5072845;28;20523;-73
2021/03/04 19:03:13;;;;;;;12.07;4.77;;;21.00;74.60;;;;;;5072358;28;20533;-75
2021/03/04 19:05:40;;;;;;;;;;;20.90;73.20;;;;;;5073481;28;20309;-71
2021/03/04 19:08:07;;;;;;;;;;;21.00;73.70;;;;;;5072223;28;19936;-70
2021/03/04 19:10:34;;;;;;;;;;;21.10;74.90;;;;;;5072349;28;19920;-69
2021/03/04 19:13:01;;;;;;;;;;;21.20;74.70;;;;;;5072390;28;19924;-70
2021/03/04 19:15:29;;;;;;;;;;;21.20;74.70;;;;;;5071925;28;19921;-71
2021/03/04 19:17:56;;;;;;;;;;;21.30;75.20;;;;;;5070695;28;19924;-71
2021/03/04 19:20:25;;;;;;;;;;;21.30;75.90;;;;;;5072452;28;19932;-70
2021/03/04 19:22:52;;;;;;;;;;;21.30;75.60;;;;;;5070180;28;19970;-70
2021/03/04 19:25:19;;;;;;;;;;;21.30;76.50;;;;;;5071982;28;19932;-70
2021/03/04 19:28:00;;;;;;;;;;;21.30;77.00;;;;;;5072480;28;19921;-71
2021/03/04 19:30:28;;;;;;;;;;;21.30;76.30;;;;;;5071631;28;19997;-73
2021/03/04 19:32:57;;;;;;;;;;;21.30;74.00;;;;;;5072370;28;19981;-70
2021/03/04 19:35:25;;;;;;;;;;;21.20;75.50;;;;;;5072431;28;20018;-70
2021/03/04 19:38:17;;;;;;;;;;;21.20;75.20;;;;;;5072324;28;20271;-69
2021/03/04 19:40:49;;;;;;;;;;;21.30;76.20;;;;;;5072241;28;19920;-70
2021/03/04 19:43:17;;;;;;;;;;;21.30;76.80;;;;;;5071697;28;19969;-71
2021/03/04 19:45:44;;;;;;;;;;;21.30;76.90;;;;;;5070631;28;19920;-70
2021/03/04 19:48:12;;;;;;;;;;;21.30;77.50;;;;;;5071680;28;20462;-71
2021/03/04 19:50:40;;;;;;;;;;;21.40;77.60;;;;;;5071634;28;19966;-71
2021/03/04 19:53:07;;;;;;;;;;;21.40;78.20;;;;;;5071867;28;19920;-71
2021/03/04 19:55:36;;;;;;;;;;;21.40;77.60;;;;;;5072016;28;20000;-71
2021/03/04 19:58:03;;;;;;;;;;;21.40;78.00;;;;;;5071947;28;19928;-71
2021/03/04 20:00:30;;;;;;;;;;;21.40;78.00;;;;;;5072032;28;19978;-71
2021/03/04 20:02:57;;;;;;;;;;;21.40;78.40;;;;;;5071893;28;20241;-71
2021/03/04 20:05:25;;;;;;;;;;;21.40;78.70;;;;;;5071709;28;19951;-70
2021/03/04 20:07:53;;;;;;;;;;;21.40;78.30;;;;;;5071273;28;20015;-71
2021/03/04 20:10:20;;;;;;;;;;;21.40;78.80;;;;;;5071962;28;19920;-69
2021/03/04 20:12:47;;;;;;;;;;;21.40;78.80;;;;;;5071711;28;19921;-70
2021/03/04 20:15:15;;;;;;;;;;;21.40;79.20;;;;;;5071790;28;19966;-69
2021/03/04 20:17:42;;;;;;;;;;;21.40;79.30;;;;;;5076615;28;19920;-71
2021/03/04 20:20:10;;;;;;;;;;;21.40;79.70;;;;;;5075204;28;20077;-72
2021/03/04 20:22:39;;;;;;;;;;;21.40;79.60;;;;;;5075669;28;19980;-70
2021/03/04 20:25:07;;;;;;;;;;;21.40;79.60;;;;;;5075599;28;19924;-74
2021/03/04 20:27:35;;;;;;;;;;;21.40;80.00;;;;;;5084776;28;19944;-71
2021/03/04 20:30:03;;;;;;;;;;;21.50;79.00;;;;;;5081425;28;19920;-72
2021/03/04 20:32:54;;;;;;;;;;;21.50;80.00;;;;;;5071915;28;19920;-72
2021/03/04 20:35:26;;;;;;;;;;;21.40;79.70;;;;;;5074490;28;20039;-72
